Time;durP1;ratioP1;P1;durP2;ratioP2;P2;SDS_P1;SDS_P2;PMS_P1;PMS_P2;Temp;Humidity;BMP_temperature;BMP_pressure;BME280_temperature;BME280_humidity;BME280_pressure;Samples;Min_cycle;Max_cycle;Signal;HPM_P1;HPM_P2
2023/10/15 00:00:24;;;;;;;4.60;2.45;;;13.30;49.80;;;;;;20407;6862;308411;-73
2023/10/15 00:02:49;;;;;;;3.10;2.00;;;13.60;49.10;;;;;;20618;6862;121097;-73
2023/10/15 00:05:15;;;;;;;4.60;2.60;;;13.40;49.90;;;;;;20415;6862;309346;-74
2023/10/15 00:07:41;;;;;;;4.57;2.47;;;13.40;49.30;;;;;;20443;6862;307281;-73
2023/10/15 00:10:09;;;;;;;7.25;2.10;;;13.60;49.00;;;;;;20650;6862;121644;-73
2023/10/15 00:12:32;;;;;;;4.20;2.20;;;13.50;49.90;;;;;;20430;6862;308095;-73
2023/10/15 00:14:57;;;;;;;3.40;2.20;;;13.50;49.20;;;;;;20450;6862;278498;-73
2023/10/15 00:17:24;;;;;;;3.72;2.25;;;13.70;48.80;;;;;;20414;6862;308683;-73
2023/10/15 00:19:50;;;;;;;5.37;2.35;;;13.80;48.40;;;;;;20417;6862;282714;-74
2023/10/15 00:22:15;;;;;;;2.70;1.77;;;14.00;48.30;;;;;;20640;6862;119027;-74
2023/10/15 00:24:41;;;;;;;3.27;1.97;;;13.70;49.20;;;;;;20641;6862;118541;-74
2023/10/15 00:27:08;;;;;;;3.30;1.85;;;13.40;50.30;;;;;;20629;6862;119427;-74
2023/10/15 00:29:35;;;;;;;4.25;2.20;;;13.10;51.10;;;;;;20402;6862;279216;-74
2023/10/15 00:31:59;;;;;;;2.62;2.10;;;13.20;50.80;;;;;;20627;6862;120959;-74
2023/10/15 00:34:26;;;;;;;2.93;2.00;;;13.10;51.20;;;;;;20634;6862;121441;-74
2023/10/15 00:36:51;;;;;;;4.10;2.10;;;12.90;51.80;;;;;;20421;6862;290783;-74
2023/10/15 00:39:20;;;;;;;4.07;2.20;;;13.00;50.70;;;;;;20400;6862;293195;-74
2023/10/15 00:41:47;;;;;;;3.87;2.05;;;13.30;50.00;;;;;;20415;6862;339992;-74
2023/10/15 00:44:14;;;;;;;4.97;2.50;;;13.50;49.40;;;;;;20417;6862;308758;-74
2023/10/15 00:46:39;;;;;;;2.63;2.10;;;13.70;49.10;;;;;;20625;6862;118700;-76
2023/10/15 00:49:14;;;;;;;3.30;2.10;;;13.50;50.20;;;;;;20421;6862;307912;-74
2023/10/15 00:51:44;;;;;;;5.40;2.17;;;13.50;50.00;;;;;;20417;6862;314150;-74
2023/10/15 00:54:11;;;;;;;4.60;2.40;;;13.60;49.50;;;;;;20631;6860;117445;-74
2023/10/15 00:56:37;;;;;;;2.67;2.13;;;13.50;50.20;;;;;;20607;6861;118730;-73
2023/10/15 01:01:35;;;;;;;2.40;1.67;;;13.20;50.10;;;;;;20614;6861;124469;-74
2023/10/15 01:04:00;;;;;;;4.83;2.07;;;13.00;50.70;;;;;;20421;6861;280419;-74
2023/10/15 01:08:55;;;;;;;3.57;2.10;;;13.40;49.70;;;;;;20411;6862;308263;-74
2023/10/15 01:11:22;;;;;;;2.87;2.20;;;13.60;49.10;;;;;;20393;6862;286414;-74
2023/10/15 01:13:45;;;;;;;3.20;1.90;;;13.80;48.30;;;;;;20614;6862;121836;-74
2023/10/15 01:16:19;;;;;;;3.43;1.53;;;13.60;49.20;;;;;;20631;6862;118505;-74
2023/10/15 01:21:32;;;;;;;2.83;2.00;;;13.30;49.40;;;;;;20401;6862;279334;-74
2023/10/15 01:24:07;;;;;;;6.00;2.05;;;13.50;48.50;;;;;;20399;6862;308351;-74
2023/10/15 01:26:34;;;;;;;6.87;1.83;;;13.70;48.20;;;;;;20630;6862;119486;-74
2023/10/15 01:28:59;;;;;;;3.00;1.98;;;13.50;48.50;;;;;;20404;6862;307213;-74
2023/10/15 01:31:25;;;;;;;4.30;1.63;;;13.50;48.50;;;;;;20604;6862;121847;-75
2023/10/15 01:33:50;;;;;;;2.95;1.85;;;13.30;49.40;;;;;;20631;6862;122044;-75
2023/10/15 01:36:18;;;;;;;2.90;1.90;;;13.10;50.40;;;;;;20636;6862;119641;-75
2023/10/15 01:38:44;;;;;;;3.50;1.80;;;12.90;51.20;;;;;;20415;6862;290591;-74
2023/10/15 01:41:13;;;;;;;3.03;1.63;;;13.00;50.50;;;;;;20619;6862;117452;-74
2023/10/15 01:43:35;;;;;;;4.70;1.40;;;13.00;50.50;;;;;;20574;6862;120504;-74
2023/10/15 01:46:06;;;;;;;3.47;1.97;;;12.90;51.20;;;;;;20614;6862;123333;-74
2023/10/15 01:48:24;;;;;;;3.40;2.00;;;12.70;51.70;;;;;;20381;6862;279745;-74
2023/10/15 01:50:50;;;;;;;2.50;1.67;;;12.90;50.60;;;;;;20612;6862;121741;-74
2023/10/15 01:53:15;;;;;;;3.90;2.17;;;13.00;51.00;;;;;;20380;6862;307877;-75
2023/10/15 01:55:54;;;;;;;2.90;1.63;;;13.20;49.80;;;;;;20613;6862;121833;-75
2023/10/15 01:58:24;;;;;;;2.10;1.50;;;13.20;50.20;;;;;;20615;6862;120876;-75
2023/10/15 02:00:50;;;;;;;3.07;2.03;;;13.00;50.90;;;;;;20401;6862;309415;-75
2023/10/15 02:03:12;;;;;;;4.62;1.77;;;13.20;50.10;;;;;;20593;6862;152659;-75
2023/10/15 02:05:41;;;;;;;2.42;1.80;;;13.20;50.50;;;;;;20419;6860;283880;-74
2023/10/15 02:08:06;;;;;;;3.63;1.70;;;13.40;49.50;;;;;;20423;6861;312865;-76
2023/10/15 02:10:32;;;;;;;1.80;1.37;;;13.60;48.00;;;;;;20594;6861;117194;-74
2023/10/15 02:13:04;;;;;;;2.00;1.50;;;13.60;49.00;;;;;;20625;6861;118385;-74
2023/10/15 02:15:26;;;;;;;3.13;1.40;;;13.30;49.80;;;;;;20595;6861;121934;-74
2023/10/15 02:17:53;;;;;;;3.70;1.70;;;13.00;50.70;;;;;;20609;6862;122456;-74
2023/10/15 02:20:40;;;;;;;3.33;1.53;;;12.80;51.30;;;;;;20617;6862;120127;-74
2023/10/15 02:22:44;;;;;;;2.05;1.65;;;12.70;52.00;;;;;;20564;6862;126071;-74
2023/10/15 02:25:09;;;;;;;2.37;1.60;;;12.60;52.20;;;;;;20604;6862;118473;-74
2023/10/15 02:27:36;;;;;;;2.85;2.35;;;12.50;52.70;;;;;;20402;6862;302726;-74
2023/10/15 02:30:02;;;;;;;3.00;1.93;;;12.70;51.80;;;;;;20628;6862;120354;-75
2023/10/15 02:34:54;;;;;;;4.17;2.27;;;12.60;52.40;;;;;;20427;6862;307387;-74
2023/10/15 02:37:26;;;;;;;3.10;1.65;;;12.80;51.90;;;;;;20593;6862;123270;-74
2023/10/15 02:39:50;;;;;;;3.17;1.83;;;12.80;52.00;;;;;;20607;6862;118675;-74
2023/10/15 02:42:19;;;;;;;2.97;2.03;;;12.60;52.50;;;;;;20404;6862;294449;-74
2023/10/15 02:44:44;;;;;;;3.00;1.93;;;12.80;52.00;;;;;;20403;6862;282617;-74
2023/10/15 02:47:19;;;;;;;3.80;2.30;;;13.10;50.50;;;;;;20396;6862;316542;-76
2023/10/15 02:49:50;;;;;;;6.80;2.53;;;13.40;50.00;;;;;;20390;6862;312509;-74
2023/10/15 02:52:10;;;;;;;3.53;1.80;;;13.30;50.00;;;;;;20576;6862;121497;-75
2023/10/15 02:54:36;;;;;;;3.47;1.80;;;13.10;51.00;;;;;;20603;6862;118562;-75
2023/10/15 02:56:56;;;;;;;3.03;1.60;;;13.00;50.90;;;;;;20601;6862;118847;-74
2023/10/15 02:59:19;;;;;;;3.95;2.10;;;12.80;51.70;;;;;;20385;6862;308737;-75
2023/10/15 03:01:46;;;;;;;2.13;1.77;;;12.90;50.90;;;;;;20621;6862;121836;-74
2023/10/15 03:04:10;;;;;;;2.92;1.90;;;12.90;51.30;;;;;;20420;6862;337819;-74
2023/10/15 03:06:41;;;;;;;2.50;1.75;;;13.00;50.00;;;;;;20642;6862;118560;-74
2023/10/15 03:09:11;;;;;;;4.03;1.77;;;13.00;50.50;;;;;;20614;6862;118007;-74
2023/10/15 03:11:38;;;;;;;1.57;1.40;;;12.80;51.20;;;;;;20589;6862;134593;-74
2023/10/15 03:14:00;;;;;;;1.30;1.20;;;12.60;51.80;;;;;;20599;6862;119627;-74
2023/10/15 03:16:33;;;;;;;3.13;1.53;;;12.50;52.50;;;;;;20634;6862;117510;-75
2023/10/15 03:19:09;;;;;;;2.83;1.80;;;12.30;52.70;;;;;;20418;6860;322750;-74
2023/10/15 03:21:30;;;;;;;4.37;1.80;;;12.60;51.80;;;;;;20368;6861;281483;-75
2023/10/15 03:23:55;;;;;;;3.33;1.67;;;12.90;51.30;;;;;;20624;6861;119937;-74
2023/10/15 03:26:19;;;;;;;4.03;1.90;;;12.90;51.30;;;;;;20413;6861;309186;-74
2023/10/15 03:28:45;;;;;;;4.27;2.00;;;13.00;51.20;;;;;;20417;6862;307910;-74
2023/10/15 03:31:17;;;;;;;2.73;2.00;;;13.20;49.80;;;;;;20404;6862;343227;-75
2023/10/15 03:34:04;;;;;;;3.77;1.80;;;13.30;50.20;;;;;;20458;6862;122384;-73
2023/10/15 03:36:12;;;;;;;4.27;1.57;;;13.30;50.20;;;;;;20570;6862;117849;-74
2023/10/15 03:38:34;;;;;;;4.18;1.90;;;13.00;51.10;;;;;;20416;6862;281120;-74
2023/10/15 03:41:21;;;;;;;1.93;1.60;;;13.00;50.90;;;;;;20626;6862;117368;-74
2023/10/15 03:43:39;;;;;;;4.40;1.70;;;13.00;50.90;;;;;;20601;6862;121287;-74
2023/10/15 03:46:25;;;;;;;4.37;1.65;;;12.60;52.10;;;;;;20635;6862;121398;-74
2023/10/15 03:48:48;;;;;;;4.12;1.87;;;12.60;52.10;;;;;;20378;6862;351229;-74
2023/10/15 03:51:16;;;;;;;3.58;1.75;;;12.90;51.10;;;;;;20405;6862;309322;-75
2023/10/15 03:53:41;;;;;;;2.90;1.80;;;13.30;49.80;;;;;;20631;6862;122647;-74
2023/10/15 03:56:05;;;;;;;5.15;1.92;;;13.20;50.30;;;;;;20417;6862;331612;-74
2023/10/15 03:58:33;;;;;;;3.37;1.43;;;13.30;49.40;;;;;;20629;6862;118825;-74
2023/10/15 04:01:16;;;;;;;2.43;1.57;;;13.30;50.10;;;;;;20634;6862;118588;-74
2023/10/15 04:03:38;;;;;;;4.10;1.70;;;13.00;50.80;;;;;;20613;6862;120057;-74
2023/10/15 04:06:05;;;;;;;3.57;2.00;;;12.80;51.50;;;;;;20411;6862;313498;-75
2023/10/15 04:08:31;;;;;;;2.70;1.90;;;12.90;50.30;;;;;;20611;6862;121715;-74
2023/10/15 04:10:55;;;;;;;3.40;1.50;;;12.90;50.70;;;;;;20614;6862;118900;-74
2023/10/15 04:13:20;;;;;;;6.23;2.00;;;12.80;51.30;;;;;;20383;6862;310785;-74
2023/10/15 04:15:45;;;;;;;3.97;1.90;;;12.90;50.10;;;;;;20404;6862;307915;-74
2023/10/15 04:18:10;;;;;;;3.97;1.70;;;13.30;49.80;;;;;;20404;6862;344218;-74
2023/10/15 04:20:40;;;;;;;2.28;1.77;;;13.50;49.00;;;;;;20607;6862;118772;-74
2023/10/15 04:23:01;;;;;;;3.67;1.90;;;13.40;49.60;;;;;;20388;6862;309632;-74
2023/10/15 04:25:33;;;;;;;2.40;1.60;;;13.50;49.40;;;;;;20618;6862;119289;-74
2023/10/15 04:28:12;;;;;;;3.67;1.90;;;13.40;50.10;;;;;;20398;6862;280659;-74
2023/10/15 04:30:24;;;;;;;3.55;1.92;;;13.40;49.50;;;;;;20271;6860;283758;-74
2023/10/15 04:32:50;;;;;;;2.53;1.80;;;13.70;49.10;;;;;;20588;6861;117202;-78
2023/10/15 04:35:18;;;;;;;3.87;1.70;;;13.50;49.60;;;;;;20616;6861;117907;-77
2023/10/15 04:37:41;;;;;;;2.43;1.60;;;13.30;50.60;;;;;;20626;6861;123891;-77
2023/10/15 04:40:11;;;;;;;2.60;1.83;;;13.00;51.20;;;;;;20408;6862;337469;-77
2023/10/15 04:42:43;;;;;;;2.20;1.50;;;13.10;50.20;;;;;;20612;6862;119273;-78
2023/10/15 04:45:03;;;;;;;2.77;1.70;;;13.10;50.70;;;;;;20392;6862;331363;-77
2023/10/15 04:47:38;;;;;;;4.13;2.17;;;13.30;50.10;;;;;;20395;6862;309157;-77
2023/10/15 04:49:57;;;;;;;2.93;1.90;;;13.60;50.20;;;;;;20386;6862;288055;-77
2023/10/15 04:52:26;;;;;;;3.87;1.87;;;13.80;48.60;;;;;;20419;6862;307895;-77
2023/10/15 04:54:55;;;;;;;3.33;1.90;;;14.00;48.00;;;;;;20414;6862;313017;-78
2023/10/15 04:57:17;;;;;;;2.40;1.70;;;14.10;47.80;;;;;;20392;6862;283527;-77
2023/10/15 04:59:43;;;;;;;3.30;1.80;;;14.20;47.50;;;;;;20432;6862;311112;-77
2023/10/15 05:02:08;;;;;;;3.80;1.92;;;14.20;47.40;;;;;;20436;6862;280117;-77
2023/10/15 05:04:34;;;;;;;3.90;1.60;;;14.30;47.50;;;;;;20635;6862;119934;-77
2023/10/15 05:07:00;;;;;;;3.17;1.75;;;14.00;48.40;;;;;;20424;6862;277674;-79
2023/10/15 05:09:31;;;;;;;4.03;2.20;;;13.90;48.00;;;;;;20412;6862;308728;-80
2023/10/15 05:11:53;;;;;;;1.90;1.35;;;13.80;48.90;;;;;;20608;6862;118051;-78
2023/10/15 05:14:18;;;;;;;3.00;1.50;;;13.80;48.90;;;;;;20631;6862;121772;-77
2023/10/15 05:16:46;;;;;;;1.95;1.75;;;13.50;49.90;;;;;;20611;6862;118624;-77
2023/10/15 05:19:09;;;;;;;3.25;1.70;;;13.10;50.80;;;;;;20563;6862;125419;-76
2023/10/15 05:21:35;;;;;;;3.67;2.10;;;12.90;51.60;;;;;;20382;6862;308304;-73
2023/10/15 05:24:02;;;;;;;3.37;1.87;;;13.00;51.90;;;;;;20629;6862;124344;-71
2023/10/15 05:26:26;;;;;;;4.32;1.80;;;12.90;51.60;;;;;;20618;6862;124769;-71
2023/10/15 05:28:51;;;;;;;3.30;1.57;;;12.60;52.30;;;;;;20624;6862;117699;-72
2023/10/15 05:31:17;;;;;;;3.07;1.43;;;12.40;52.90;;;;;;20621;6862;121035;-71
2023/10/15 05:33:43;;;;;;;2.78;1.92;;;12.20;53.60;;;;;;20412;6862;337011;-72
2023/10/15 05:36:08;;;;;;;4.68;2.20;;;12.40;53.70;;;;;;20426;6862;284148;-71
2023/10/15 05:38:35;;;;;;;2.77;1.90;;;12.80;53.20;;;;;;20631;6862;117378;-71
2023/10/15 05:40:59;;;;;;;4.00;1.95;;;12.80;53.30;;;;;;20420;6860;336951;-72
2023/10/15 05:43:25;;;;;;;4.27;2.17;;;12.90;53.30;;;;;;20611;6861;118726;-73
2023/10/15 05:45:51;;;;;;;3.10;1.77;;;12.80;53.50;;;;;;20419;6861;308574;-74
2023/10/15 05:48:17;;;;;;;3.77;1.60;;;12.90;53.20;;;;;;20636;6861;124268;-72
2023/10/15 05:50:42;;;;;;;2.53;1.63;;;12.80;53.30;;;;;;20613;6861;117408;-72
2023/10/15 05:53:07;;;;;;;3.87;2.10;;;12.60;53.80;;;;;;20388;6862;279906;-74
2023/10/15 05:55:33;;;;;;;4.77;2.10;;;12.70;53.90;;;;;;20356;6862;308275;-74
2023/10/15 05:57:59;;;;;;;5.45;2.42;;;13.20;52.70;;;;;;20391;6862;313630;-72
2023/10/15 06:00:27;;;;;;;3.53;2.20;;;13.40;52.50;;;;;;20391;6862;309214;-74
2023/10/15 06:02:57;;;;;;;3.92;1.98;;;13.40;52.50;;;;;;20399;6862;337364;-73
2023/10/15 06:05:23;;;;;;;3.87;1.93;;;13.60;52.20;;;;;;20562;6862;117705;-73
2023/10/15 06:07:49;;;;;;;3.17;2.00;;;13.30;52.60;;;;;;20402;6862;278571;-74
2023/10/15 06:10:15;;;;;;;4.50;2.00;;;13.30;52.60;;;;;;20615;6862;118386;-72
2023/10/15 06:12:42;;;;;;;5.20;2.08;;;13.20;53.00;;;;;;20585;6862;121888;-73
2023/10/15 06:15:08;;;;;;;3.07;1.50;;;12.90;53.40;;;;;;20624;6862;123138;-73
2023/10/15 06:17:34;;;;;;;3.30;2.30;;;12.80;53.40;;;;;;20373;6862;279981;-75
2023/10/15 06:20:12;;;;;;;5.17;1.60;;;12.80;53.40;;;;;;20625;6862;117842;-72
2023/10/15 06:22:28;;;;;;;4.60;1.75;;;12.80;53.60;;;;;;20593;6862;117364;-73
2023/10/15 06:24:52;;;;;;;3.57;1.67;;;12.60;54.10;;;;;;20623;6862;117369;-74
2023/10/15 06:27:18;;;;;;;2.40;1.50;;;12.40;54.70;;;;;;20619;6862;117822;-75
2023/10/15 06:29:44;;;;;;;2.53;2.00;;;12.30;55.70;;;;;;20416;6862;348278;-73
2023/10/15 06:32:10;;;;;;;2.40;1.75;;;12.50;54.60;;;;;;20628;6862;117408;-74
2023/10/15 06:34:35;;;;;;;2.57;1.57;;;12.50;54.40;;;;;;20631;6862;117812;-75
2023/10/15 06:37:00;;;;;;;3.30;2.05;;;12.40;54.80;;;;;;20427;6862;308665;-75
2023/10/15 06:39:27;;;;;;;4.60;2.47;;;12.90;54.10;;;;;;20409;6862;299376;-75
2023/10/15 06:41:52;;;;;;;4.93;2.23;;;12.90;54.10;;;;;;20634;6862;121522;-75
2023/10/15 06:44:20;;;;;;;2.67;2.17;;;12.90;54.10;;;;;;20434;6862;282879;-76
2023/10/15 06:46:47;;;;;;;3.77;2.10;;;13.00;53.60;;;;;;20388;6862;286060;-74
2023/10/15 06:49:12;;;;;;;3.87;2.40;;;13.40;52.50;;;;;;20378;6862;307621;-73
2023/10/15 06:51:39;;;;;;;3.90;2.40;;;13.40;52.50;;;;;;20404;6862;335191;-76
2023/10/15 06:54:03;;;;;;;3.15;2.20;;;13.60;52.50;;;;;;20404;6860;308848;-71
2023/10/15 06:56:30;;;;;;;2.93;2.07;;;13.60;52.70;;;;;;20614;6861;118643;-74
2023/10/15 06:58:55;;;;;;;3.23;2.20;;;13.60;52.60;;;;;;20396;6861;312845;-73
2023/10/15 07:01:26;;;;;;;4.97;2.40;;;13.60;52.70;;;;;;20400;6861;279251;-73
2023/10/15 07:03:48;;;;;;;2.70;1.87;;;13.70;52.50;;;;;;20616;6862;120626;-73
2023/10/15 07:06:13;;;;;;;4.60;2.33;;;13.60;52.90;;;;;;20414;6862;309765;-76
2023/10/15 07:08:40;;;;;;;3.45;2.20;;;13.80;52.60;;;;;;20405;6862;278386;-72
2023/10/15 07:11:05;;;;;;;2.92;2.10;;;13.80;52.60;;;;;;20410;6862;311645;-72
2023/10/15 07:13:31;;;;;;;2.08;1.80;;;14.00;52.60;;;;;;20606;6862;118122;-72
2023/10/15 07:15:57;;;;;;;2.63;1.47;;;13.80;52.80;;;;;;20623;6862;118975;-72
2023/10/15 07:18:22;;;;;;;3.13;1.80;;;13.50;53.40;;;;;;20405;6862;278962;-72
2023/10/15 07:20:48;;;;;;;3.65;1.90;;;13.80;52.40;;;;;;20402;6862;314100;-72
2023/10/15 07:23:32;;;;;;;2.37;1.93;;;13.80;52.30;;;;;;20487;6862;120521;-73
2023/10/15 07:25:58;;;;;;;3.20;2.00;;;13.60;52.50;;;;;;20290;6862;318063;-72
2023/10/15 07:28:42;;;;;;;3.00;2.00;;;13.70;52.60;;;;;;20345;6862;287287;-72
2023/10/15 07:31:13;;;;;;;5.90;1.57;;;13.90;52.30;;;;;;20075;6862;74162;-72
2023/10/15 07:33:41;;;;;;;2.83;1.87;;;13.70;52.70;;;;;;20560;6862;68105;-71
2023/10/15 07:36:06;;;;;;;2.63;1.63;;;13.50;54.10;;;;;;20598;6862;120187;-75
2023/10/15 07:38:36;;;;;;;3.75;1.70;;;13.10;54.50;;;;;;20597;6862;117654;-74
2023/10/15 07:40:59;;;;;;;4.77;2.50;;;13.10;54.50;;;;;;20595;6862;118268;-75
2023/10/15 07:43:24;;;;;;;2.57;1.77;;;13.00;54.90;;;;;;20361;6862;280726;-73
2023/10/15 07:45:50;;;;;;;3.62;1.83;;;13.30;54.60;;;;;;20614;6862;117611;-73
2023/10/15 07:48:17;;;;;;;3.30;1.83;;;13.50;54.00;;;;;;20399;6862;307944;-73
2023/10/15 07:50:45;;;;;;;3.83;2.00;;;13.50;54.00;;;;;;20414;6862;308194;-73
2023/10/15 07:53:08;;;;;;;4.53;3.37;;;13.90;53.50;;;;;;20595;6862;117416;-73
2023/10/15 07:55:33;;;;;;;3.03;2.20;;;13.80;53.60;;;;;;20409;6862;278699;-74
2023/10/15 07:57:59;;;;;;;3.35;1.85;;;13.90;53.50;;;;;;20613;6862;117585;-72
2023/10/15 08:00:29;;;;;;;9.03;6.13;;;13.90;53.90;;;;;;20377;6862;280165;-73
2023/10/15 08:02:57;;;;;;;2.40;1.73;;;14.10;54.00;;;;;;20596;6862;117682;-72
2023/10/15 08:05:20;;;;;;;9.80;7.40;;;14.10;54.10;;;;;;20356;6860;279310;-73
2023/10/15 08:07:46;;;;;;;7.30;4.83;;;14.20;53.10;;;;;;20592;6861;124221;-74
2023/10/15 08:10:11;;;;;;;3.17;2.03;;;14.20;53.20;;;;;;20573;6861;124047;-73
2023/10/15 08:12:37;;;;;;;3.55;1.98;;;14.00;53.70;;;;;;20407;6861;279123;-72
2023/10/15 08:15:03;;;;;;;6.43;2.85;;;14.10;53.20;;;;;;20402;6862;308375;-73
2023/10/15 08:17:29;;;;;;;2.53;2.03;;;14.40;52.50;;;;;;20574;6862;123102;-73
2023/10/15 08:19:54;;;;;;;2.55;2.05;;;14.20;53.60;;;;;;20606;6862;117693;-72
2023/10/15 08:22:22;;;;;;;4.87;2.63;;;14.10;53.50;;;;;;20593;6862;117539;-74
2023/10/15 08:24:47;;;;;;;1.60;1.50;;;14.00;54.20;;;;;;20611;6862;118092;-74
2023/10/15 08:27:13;;;;;;;3.35;1.62;;;13.90;54.70;;;;;;20399;6862;313261;-75
2023/10/15 08:29:39;;;;;;;1.45;1.35;;;14.10;56.10;;;;;;20618;6862;118237;-73
2023/10/15 08:32:09;;;;;;;2.37;1.50;;;14.40;56.80;;;;;;20413;6862;313254;-73
2023/10/15 08:34:32;;;;;;;1.57;1.43;;;14.80;56.70;;;;;;20623;6862;117875;-73
2023/10/15 08:36:58;;;;;;;1.90;1.55;;;15.10;56.60;;;;;;20591;6862;117761;-75
2023/10/15 08:39:24;;;;;;;2.97;2.77;;;15.00;55.90;;;;;;20605;6862;117780;-73
2023/10/15 08:41:49;;;;;;;2.55;2.35;;;15.10;56.00;;;;;;20410;6862;314855;-75
2023/10/15 08:44:18;;;;;;;3.22;1.98;;;15.40;53.50;;;;;;20407;6862;278762;-74
2023/10/15 08:46:40;;;;;;;2.80;1.90;;;15.90;52.40;;;;;;20416;6862;278786;-73
2023/10/15 08:49:06;;;;;;;1.33;1.00;;;16.30;51.20;;;;;;20578;6862;117784;-79
2023/10/15 08:51:34;;;;;;;1.97;1.23;;;16.30;51.40;;;;;;20530;6862;121580;-74
2023/10/15 08:53:57;;;;;;;2.00;1.70;;;16.10;52.00;;;;;;20411;6862;309138;-75
2023/10/15 08:56:25;;;;;;;2.53;1.67;;;16.30;50.60;;;;;;20636;6862;120808;-76
2023/10/15 08:58:52;;;;;;;1.60;1.50;;;16.40;51.40;;;;;;20609;6862;117197;-77
2023/10/15 09:01:16;;;;;;;1.77;1.53;;;16.30;52.00;;;;;;20633;6862;118673;-74
2023/10/15 09:03:42;;;;;;;2.23;1.33;;;16.30;52.00;;;;;;20656;6862;117632;-75
2023/10/15 09:06:07;;;;;;;1.93;1.33;;;16.20;52.10;;;;;;20653;6862;117493;-75
2023/10/15 09:08:35;;;;;;;1.63;1.30;;;16.00;52.20;;;;;;20654;6862;118829;-76
2023/10/15 09:10:59;;;;;;;1.70;1.30;;;16.00;52.90;;;;;;20645;6862;118790;-74
2023/10/15 09:13:26;;;;;;;2.00;1.40;;;15.90;52.20;;;;;;20425;6862;312492;-74
2023/10/15 09:15:52;;;;;;;2.42;1.70;;;16.20;49.40;;;;;;20653;6860;118085;-75
2023/10/15 09:18:16;;;;;;;2.22;1.50;;;16.20;49.80;;;;;;20662;6861;118139;-76
2023/10/15 09:20:45;;;;;;;2.95;1.40;;;16.10;50.20;;;;;;20443;6861;281287;-74
2023/10/15 09:23:10;;;;;;;2.90;1.70;;;16.30;48.00;;;;;;20438;6861;331874;-78
2023/10/15 09:25:36;;;;;;;3.00;1.65;;;16.70;46.90;;;;;;20629;6861;117597;-76
2023/10/15 09:28:01;;;;;;;2.20;1.50;;;16.60;47.40;;;;;;20603;6862;117276;-72
2023/10/15 09:30:30;;;;;;;2.40;1.50;;;16.50;47.10;;;;;;20415;6862;284112;-73
2023/10/15 09:33:28;;;;;;;2.13;1.43;;;16.40;47.00;;;;;;20611;6861;114982;-74
2023/10/15 09:38:45;;;;;;;2.60;1.70;;;16.40;46.20;;;;;;20264;6862;337413;-74
2023/10/15 09:41:10;;;;;;;2.60;1.57;;;16.40;46.60;;;;;;20635;6862;117461;-72
2023/10/15 09:43:38;;;;;;;1.90;1.30;;;16.30;47.40;;;;;;20393;6862;308766;-71
2023/10/15 09:46:05;;;;;;;1.53;1.43;;;16.60;45.80;;;;;;20422;6862;278749;-71
2023/10/15 09:48:33;;;;;;;1.47;1.30;;;16.60;45.70;;;;;;20432;6862;304009;-75
2023/10/15 09:50:59;;;;;;;2.83;2.00;;;16.90;43.10;;;;;;20642;6862;117574;-73
2023/10/15 09:53:24;;;;;;;2.08;1.50;;;16.60;43.90;;;;;;20411;6862;343393;-73
2023/10/15 09:55:49;;;;;;;1.67;1.27;;;16.60;41.40;;;;;;20440;6862;308709;-71
2023/10/15 09:58:16;;;;;;;2.90;1.45;;;16.70;42.10;;;;;;20437;6862;279188;-72
2023/10/15 10:03:39;;;;;;;2.47;1.40;;;16.90;44.20;;;;;;20409;6862;309337;-71
2023/10/15 10:06:37;;;;;;;1.70;1.20;;;16.90;41.60;;;;;;20621;6862;117504;-71
2023/10/15 10:09:16;;;;;;;1.33;1.23;;;16.70;43.30;;;;;;20595;6862;117952;-71
2023/10/15 10:11:45;;;;;;;2.23;1.80;;;16.50;44.50;;;;;;20423;6862;313595;-72
2023/10/15 10:14:38;;;;;;;1.60;1.17;;;16.80;43.20;;;;;;20646;6862;117958;-74
2023/10/15 10:17:04;;;;;;;1.30;1.20;;;16.80;43.20;;;;;;19936;6862;122478;-77
2023/10/15 10:19:29;;;;;;;2.72;1.60;;;16.60;43.50;;;;;;20425;6862;305651;-73
2023/10/15 10:21:56;;;;;;;1.77;1.67;;;16.50;39.70;;;;;;20654;6862;118265;-74
2023/10/15 10:24:23;;;;;;;1.90;1.10;;;16.30;41.30;;;;;;20615;6862;119994;-76
2023/10/15 10:26:54;;;;;;;4.77;1.90;;;16.00;42.50;;;;;;20435;6860;282469;-77
2023/10/15 10:29:19;;;;;;;2.77;1.60;;;16.10;41.20;;;;;;20416;6861;284139;-74
2023/10/15 10:31:44;;;;;;;2.45;1.70;;;16.40;41.60;;;;;;20437;6861;306971;-75
2023/10/15 10:34:10;;;;;;;2.23;1.50;;;16.80;41.00;;;;;;20445;6861;323907;-80
2023/10/15 10:36:39;;;;;;;3.13;1.50;;;17.10;40.80;;;;;;20650;6861;117742;-75
2023/10/15 10:39:10;;;;;;;1.60;1.50;;;17.10;41.90;;;;;;20654;6862;117658;-75
2023/10/15 10:41:43;;;;;;;2.17;1.83;;;16.90;42.90;;;;;;20627;6862;121606;-73
2023/10/15 10:44:12;;;;;;;1.65;1.52;;;16.80;43.80;;;;;;20435;6862;336486;-73
2023/10/15 10:46:41;;;;;;;1.92;1.65;;;17.10;41.60;;;;;;20366;6862;309641;-75
2023/10/15 10:49:07;;;;;;;2.93;1.60;;;17.50;40.40;;;;;;20397;6862;278687;-74
2023/10/15 10:51:33;;;;;;;2.13;1.47;;;17.80;39.30;;;;;;20608;6862;117767;-78
2023/10/15 10:53:57;;;;;;;3.47;1.40;;;17.80;40.50;;;;;;20630;6862;124993;-74
2023/10/15 10:56:22;;;;;;;2.27;1.73;;;17.60;41.40;;;;;;20426;6862;307378;-75
2023/10/15 10:58:51;;;;;;;2.70;1.20;;;17.70;39.90;;;;;;20640;6862;118450;-74
2023/10/15 11:01:17;;;;;;;3.83;1.45;;;17.70;40.80;;;;;;20419;6862;313160;-72
2023/10/15 11:03:42;;;;;;;1.93;1.43;;;17.90;39.40;;;;;;20435;6862;341708;-73
2023/10/15 11:06:08;;;;;;;2.62;1.40;;;18.40;37.60;;;;;;20402;6862;312274;-73
2023/10/15 11:08:34;;;;;;;1.23;0.80;;;18.40;37.50;;;;;;20649;6862;117346;-73
2023/10/15 11:11:00;;;;;;;1.70;1.17;;;18.20;38.60;;;;;;20652;6862;117838;-74
2023/10/15 11:13:27;;;;;;;1.58;1.17;;;17.70;36.70;;;;;;20395;6862;314708;-74
2023/10/15 11:15:53;;;;;;;1.93;1.10;;;17.70;37.40;;;;;;20651;6862;117815;-74
2023/10/15 11:18:22;;;;;;;1.60;1.00;;;17.60;36.90;;;;;;20441;6862;308354;-76
2023/10/15 11:20:50;;;;;;;1.80;0.90;;;17.50;36.80;;;;;;20651;6862;117315;-75
2023/10/15 11:23:15;;;;;;;1.90;1.17;;;17.50;38.10;;;;;;20620;6862;118436;-74
2023/10/15 11:25:39;;;;;;;1.65;1.12;;;17.30;39.00;;;;;;20428;6862;279157;-74
2023/10/15 11:28:05;;;;;;;1.43;1.00;;;17.40;37.60;;;;;;20435;6862;308643;-72
2023/10/15 11:30:31;;;;;;;2.50;1.30;;;17.60;36.30;;;;;;20636;6862;117699;-73
2023/10/15 11:32:56;;;;;;;0.88;0.82;;;17.60;37.80;;;;;;20660;6862;117379;-72
2023/10/15 11:35:22;;;;;;;3.37;1.27;;;17.10;39.80;;;;;;20638;6862;118018;-73
2023/10/15 11:37:50;;;;;;;4.13;1.37;;;17.10;39.80;;;;;;20657;6862;121541;-73
2023/10/15 11:40:13;;;;;;;12.15;3.53;;;17.00;40.00;;;;;;20439;6860;293643;-73
2023/10/15 11:42:43;;;;;;;5.40;2.50;;;17.20;37.00;;;;;;20446;6861;316585;-73
2023/10/15 11:45:16;;;;;;;2.87;1.73;;;17.60;36.90;;;;;;20640;6861;117549;-74
2023/10/15 11:47:35;;;;;;;3.70;1.50;;;17.70;38.10;;;;;;20606;6861;121301;-73
2023/10/15 11:50:00;;;;;;;1.30;1.10;;;17.70;39.00;;;;;;20425;6862;279596;-72
2023/10/15 11:52:27;;;;;;;3.70;1.03;;;18.00;36.00;;;;;;20642;6862;118376;-71
2023/10/15 11:54:54;;;;;;;2.97;1.40;;;18.00;36.00;;;;;;20446;6862;308584;-71
2023/10/15 11:57:24;;;;;;;1.30;1.15;;;18.10;35.80;;;;;;20416;6862;279724;-72
2023/10/15 11:59:50;;;;;;;2.33;1.25;;;18.40;34.50;;;;;;20435;6862;281039;-72
2023/10/15 12:02:15;;;;;;;1.03;0.93;;;18.70;34.70;;;;;;20635;6862;116312;-72
2023/10/15 12:04:41;;;;;;;1.35;0.60;;;18.60;36.00;;;;;;20626;6862;117864;-72
2023/10/15 12:07:11;;;;;;;1.53;1.00;;;18.10;35.90;;;;;;20624;6862;119123;-74
2023/10/15 12:09:39;;;;;;;1.63;1.20;;;17.40;33.80;;;;;;20401;6862;308366;-74
2023/10/15 12:12:00;;;;;;;1.87;1.10;;;17.40;33.90;;;;;;20406;6862;294678;-74
2023/10/15 12:14:26;;;;;;;1.50;1.20;;;17.40;33.40;;;;;;20429;6862;313128;-74
2023/10/15 12:16:52;;;;;;;2.13;1.03;;;17.40;33.50;;;;;;20621;6862;117418;-74
2023/10/15 12:19:18;;;;;;;1.77;0.90;;;16.50;36.30;;;;;;20620;6862;117594;-74
2023/10/15 12:21:45;;;;;;;2.30;0.93;;;16.50;36.30;;;;;;20661;6862;117908;-73
2023/10/15 12:24:13;;;;;;;1.98;0.90;;;16.10;35.40;;;;;;20443;6862;313311;-80
2023/10/15 12:26:37;;;;;;;2.87;0.97;;;16.00;35.20;;;;;;20629;6862;117503;-74
2023/10/15 12:29:03;;;;;;;0.90;0.75;;;15.90;36.50;;;;;;20666;6862;117595;-74
2023/10/15 12:31:30;;;;;;;1.27;1.00;;;15.70;37.50;;;;;;20626;6862;120491;-76
2023/10/15 12:33:56;;;;;;;1.20;1.00;;;15.40;37.80;;;;;;20433;6862;278245;-74
2023/10/15 12:36:28;;;;;;;1.67;1.10;;;15.40;35.70;;;;;;20413;6862;309182;-74
2023/10/15 12:38:56;;;;;;;1.13;1.10;;;15.50;34.10;;;;;;20350;6862;280168;-79
2023/10/15 12:41:21;;;;;;;2.57;0.90;;;15.60;34.30;;;;;;20647;6862;117964;-78
2023/10/15 12:43:46;;;;;;;1.40;1.30;;;15.30;35.60;;;;;;20382;6862;307544;-78
2023/10/15 12:46:14;;;;;;;2.00;1.13;;;15.10;37.00;;;;;;20659;6862;117867;-79
2023/10/15 12:48:46;;;;;;;1.80;0.80;;;14.50;39.50;;;;;;20672;6862;68545;-76
2023/10/15 12:51:25;;;;;;;0.87;0.87;;;14.40;39.40;;;;;;20609;6860;67970;-75